sensor_id;sensor_type;location;lat;lon;timestamp;temperature;humidity
51811;DHT22;52468;40.116;18.296;2022-08-01T00:01:30;25.10;59.40
51811;DHT22;52468;40.116;18.296;2022-08-01T00:03:57;25.10;59.50
51811;DHT22;52468;40.116;18.296;2022-08-01T00:06:25;25.10;59.50
51811;DHT22;52468;40.116;18.296;2022-08-01T00:08:53;25.10;59.60
51811;DHT22;52468;40.116;18.296;2022-08-01T00:11:21;25.00;59.80
51811;DHT22;52468;40.116;18.296;2022-08-01T00:13:49;25.10;59.80
51811;DHT22;52468;40.116;18.296;2022-08-01T00:16:17;25.00;60.00
51811;DHT22;52468;40.116;18.296;2022-08-01T00:18:45;25.00;60.00
51811;DHT22;52468;40.116;18.296;2022-08-01T00:21:13;25.10;59.90
51811;DHT22;52468;40.116;18.296;2022-08-01T00:23:41;25.10;60.10
51811;DHT22;52468;40.116;18.296;2022-08-01T00:26:09;25.10;60.10
51811;DHT22;52468;40.116;18.296;2022-08-01T00:28:36;25.00;60.30
51811;DHT22;52468;40.116;18.296;2022-08-01T00:31:04;25.00;60.50
51811;DHT22;52468;40.116;18.296;2022-08-01T00:33:32;25.00;60.60
51811;DHT22;52468;40.116;18.296;2022-08-01T00:36:00;25.00;60.80
51811;DHT22;52468;40.116;18.296;2022-08-01T00:38:28;25.00;60.90
51811;DHT22;52468;40.116;18.296;2022-08-01T00:40:56;25.00;60.80
51811;DHT22;52468;40.116;18.296;2022-08-01T00:43:24;25.00;60.80
51811;DHT22;52468;40.116;18.296;2022-08-01T00:45:52;25.00;60.80
51811;DHT22;52468;40.116;18.296;2022-08-01T00:48:20;25.00;60.70
51811;DHT22;52468;40.116;18.296;2022-08-01T00:50:48;25.00;60.80
51811;DHT22;52468;40.116;18.296;2022-08-01T00:53:16;25.00;60.90
51811;DHT22;52468;40.116;18.296;2022-08-01T00:55:44;24.90;61.00
51811;DHT22;52468;40.116;18.296;2022-08-01T00:58:12;25.00;60.90
51811;DHT22;52468;40.116;18.296;2022-08-01T01:00:40;24.90;61.10
51811;DHT22;52468;40.116;18.296;2022-08-01T01:03:08;25.00;61.00
51811;DHT22;52468;40.116;18.296;2022-08-01T01:05:44;24.90;61.10
51811;DHT22;52468;40.116;18.296;2022-08-01T01:08:21;24.90;61.00
51811;DHT22;52468;40.116;18.296;2022-08-01T01:11:04;24.80;61.10
51811;DHT22;52468;40.116;18.296;2022-08-01T01:13:38;24.80;61.40
51811;DHT22;52468;40.116;18.296;2022-08-01T01:16:15;24.80;61.30
51811;DHT22;52468;40.116;18.296;2022-08-01T01:18:51;24.80;61.30
51811;DHT22;52468;40.116;18.296;2022-08-01T01:29:28;24.60;61.80
51811;DHT22;52468;40.116;18.296;2022-08-01T01:32:04;24.60;61.90
51811;DHT22;52468;40.116;18.296;2022-08-01T01:34:36;24.60;61.80
51811;DHT22;52468;40.116;18.296;2022-08-01T01:37:09;24.60;61.90
51811;DHT22;52468;40.116;18.296;2022-08-01T01:39:40;24.60;61.90
51811;DHT22;52468;40.116;18.296;2022-08-01T01:42:09;24.60;62.00
51811;DHT22;52468;40.116;18.296;2022-08-01T01:44:38;24.60;62.00
51811;DHT22;52468;40.116;18.296;2022-08-01T01:47:06;24.50;62.20
51811;DHT22;52468;40.116;18.296;2022-08-01T01:49:34;24.50;62.20
51811;DHT22;52468;40.116;18.296;2022-08-01T01:52:07;24.50;62.10
51811;DHT22;52468;40.116;18.296;2022-08-01T01:54:39;24.50;62.20
51811;DHT22;52468;40.116;18.296;2022-08-01T01:57:09;24.50;62.20
51811;DHT22;52468;40.116;18.296;2022-08-01T01:59:39;24.50;62.40
51811;DHT22;52468;40.116;18.296;2022-08-01T02:02:09;24.50;62.50
51811;DHT22;52468;40.116;18.296;2022-08-01T02:04:40;24.40;62.70
51811;DHT22;52468;40.116;18.296;2022-08-01T02:07:13;24.40;62.70
51811;DHT22;52468;40.116;18.296;2022-08-01T02:09:45;24.40;62.70
51811;DHT22;52468;40.116;18.296;2022-08-01T02:12:14;24.40;62.70
51811;DHT22;52468;40.116;18.296;2022-08-01T02:14:46;24.50;62.70
51811;DHT22;52468;40.116;18.296;2022-08-01T02:17:17;24.40;62.80
51811;DHT22;52468;40.116;18.296;2022-08-01T02:19:46;24.40;62.80
51811;DHT22;52468;40.116;18.296;2022-08-01T02:22:23;24.40;63.00
51811;DHT22;52468;40.116;18.296;2022-08-01T02:25:09;24.30;63.10
51811;DHT22;52468;40.116;18.296;2022-08-01T02:28:09;24.30;63.20
51811;DHT22;52468;40.116;18.296;2022-08-01T02:30:39;24.30;63.30
51811;DHT22;52468;40.116;18.296;2022-08-01T02:33:20;24.40;63.30
51811;DHT22;52468;40.116;18.296;2022-08-01T02:35:52;24.30;63.50
51811;DHT22;52468;40.116;18.296;2022-08-01T02:38:24;24.30;63.50
51811;DHT22;52468;40.116;18.296;2022-08-01T02:40:57;24.30;63.50
51811;DHT22;52468;40.116;18.296;2022-08-01T02:43:28;24.30;63.70
51811;DHT22;52468;40.116;18.296;2022-08-01T02:46:01;24.30;63.90
51811;DHT22;52468;40.116;18.296;2022-08-01T02:48:33;24.20;64.00
51811;DHT22;52468;40.116;18.296;2022-08-01T02:51:03;24.20;64.00
51811;DHT22;52468;40.116;18.296;2022-08-01T02:53:33;24.40;63.90
51811;DHT22;52468;40.116;18.296;2022-08-01T02:56:05;24.30;64.20
51811;DHT22;52468;40.116;18.296;2022-08-01T02:58:35;24.30;64.30
51811;DHT22;52468;40.116;18.296;2022-08-01T03:01:05;24.30;64.30
51811;DHT22;52468;40.116;18.296;2022-08-01T03:03:34;24.40;64.20
51811;DHT22;52468;40.116;18.296;2022-08-01T03:06:03;24.40;64.10
51811;DHT22;52468;40.116;18.296;2022-08-01T03:08:33;24.40;64.20
51811;DHT22;52468;40.116;18.296;2022-08-01T03:11:03;24.40;64.20
51811;DHT22;52468;40.116;18.296;2022-08-01T03:13:33;24.40;64.10
51811;DHT22;52468;40.116;18.296;2022-08-01T03:16:02;24.50;64.10
51811;DHT22;52468;40.116;18.296;2022-08-01T03:18:31;24.40;64.20
51811;DHT22;52468;40.116;18.296;2022-08-01T03:21:00;24.40;64.20
51811;DHT22;52468;40.116;18.296;2022-08-01T03:23:30;24.40;64.30
51811;DHT22;52468;40.116;18.296;2022-08-01T03:26:00;24.40;64.40
51811;DHT22;52468;40.116;18.296;2022-08-01T03:28:29;24.30;64.70
51811;DHT22;52468;40.116;18.296;2022-08-01T03:30:58;24.30;64.70
51811;DHT22;52468;40.116;18.296;2022-08-01T03:33:27;24.30;64.90
51811;DHT22;52468;40.116;18.296;2022-08-01T03:35:55;24.30;64.90
51811;DHT22;52468;40.116;18.296;2022-08-01T03:38:27;24.20;65.20
51811;DHT22;52468;40.116;18.296;2022-08-01T03:41:09;24.20;65.20
51811;DHT22;52468;40.116;18.296;2022-08-01T03:43:41;24.30;65.30
51811;DHT22;52468;40.116;18.296;2022-08-01T03:46:22;24.20;65.40
51811;DHT22;52468;40.116;18.296;2022-08-01T03:48:52;24.30;65.30
51811;DHT22;52468;40.116;18.296;2022-08-01T03:51:23;24.30;65.40
51811;DHT22;52468;40.116;18.296;2022-08-01T03:53:51;24.20;65.50
51811;DHT22;52468;40.116;18.296;2022-08-01T03:56:23;24.30;65.60
51811;DHT22;52468;40.116;18.296;2022-08-01T03:58:51;24.30;65.50
51811;DHT22;52468;40.116;18.296;2022-08-01T04:01:20;24.40;65.50
51811;DHT22;52468;40.116;18.296;2022-08-01T04:03:48;24.50;65.20
51811;DHT22;52468;40.116;18.296;2022-08-01T04:06:17;24.50;65.20
51811;DHT22;52468;40.116;18.296;2022-08-01T04:08:45;24.60;65.00
51811;DHT22;52468;40.116;18.296;2022-08-01T04:11:24;24.80;64.80
51811;DHT22;52468;40.116;18.296;2022-08-01T04:13:53;24.80;64.60
51811;DHT22;52468;40.116;18.296;2022-08-01T04:16:21;24.90;64.60
51811;DHT22;52468;40.116;18.296;2022-08-01T04:18:50;25.00;64.50
51811;DHT22;52468;40.116;18.296;2022-08-01T04:21:22;25.10;64.30
51811;DHT22;52468;40.116;18.296;2022-08-01T04:23:54;25.40;64.20
51811;DHT22;52468;40.116;18.296;2022-08-01T04:26:24;25.50;63.80
51811;DHT22;52468;40.116;18.296;2022-08-01T04:28:55;25.60;63.30
51811;DHT22;52468;40.116;18.296;2022-08-01T04:31:24;25.90;62.70
51811;DHT22;52468;40.116;18.296;2022-08-01T04:33:55;26.00;62.20
51811;DHT22;52468;40.116;18.296;2022-08-01T04:36:25;26.20;61.90
51811;DHT22;52468;40.116;18.296;2022-08-01T04:38:59;26.30;61.70
51811;DHT22;52468;40.116;18.296;2022-08-01T04:41:30;26.50;61.40
51811;DHT22;52468;40.116;18.296;2022-08-01T04:43:58;26.60;61.10
51811;DHT22;52468;40.116;18.296;2022-08-01T04:46:32;26.80;60.90
51811;DHT22;52468;40.116;18.296;2022-08-01T04:49:01;27.00;60.80
51811;DHT22;52468;40.116;18.296;2022-08-01T04:51:29;27.20;60.30
51811;DHT22;52468;40.116;18.296;2022-08-01T04:53:57;27.20;60.90
51811;DHT22;52468;40.116;18.296;2022-08-01T04:56:26;27.40;61.10
51811;DHT22;52468;40.116;18.296;2022-08-01T04:58:54;27.40;61.90
51811;DHT22;52468;40.116;18.296;2022-08-01T05:01:40;27.50;62.30
51811;DHT22;52468;40.116;18.296;2022-08-01T05:04:08;27.50;62.50
51811;DHT22;52468;40.116;18.296;2022-08-01T05:06:36;27.60;62.50
51811;DHT22;52468;40.116;18.296;2022-08-01T05:09:04;27.80;62.40
51811;DHT22;52468;40.116;18.296;2022-08-01T05:11:32;28.00;62.30
51811;DHT22;52468;40.116;18.296;2022-08-01T05:13:59;28.00;62.20
51811;DHT22;52468;40.116;18.296;2022-08-01T05:16:27;28.10;62.20
51811;DHT22;52468;40.116;18.296;2022-08-01T05:18:55;28.10;62.30
51811;DHT22;52468;40.116;18.296;2022-08-01T05:21:23;28.30;61.90
51811;DHT22;52468;40.116;18.296;2022-08-01T05:23:51;28.30;62.00
51811;DHT22;52468;40.116;18.296;2022-08-01T05:26:19;28.40;62.10
51811;DHT22;52468;40.116;18.296;2022-08-01T05:28:47;28.40;61.80
51811;DHT22;52468;40.116;18.296;2022-08-01T05:31:14;28.50;61.70
51811;DHT22;52468;40.116;18.296;2022-08-01T05:36:11;28.80;60.80
51811;DHT22;52468;40.116;18.296;2022-08-01T05:38:39;29.00;60.30
51811;DHT22;52468;40.116;18.296;2022-08-01T05:41:07;29.10;60.00
51811;DHT22;52468;40.116;18.296;2022-08-01T05:43:35;29.10;59.60
51811;DHT22;52468;40.116;18.296;2022-08-01T05:46:02;29.20;59.30
51811;DHT22;52468;40.116;18.296;2022-08-01T05:48:30;29.20;59.10
51811;DHT22;52468;40.116;18.296;2022-08-01T05:50:58;29.40;58.70
51811;DHT22;52468;40.116;18.296;2022-08-01T05:53:26;29.60;57.60
51811;DHT22;52468;40.116;18.296;2022-08-01T05:55:54;29.60;58.00
51811;DHT22;52468;40.116;18.296;2022-08-01T05:58:22;29.60;58.10
51811;DHT22;52468;40.116;18.296;2022-08-01T06:01:04;29.60;58.30
51811;DHT22;52468;40.116;18.296;2022-08-01T06:03:51;29.70;58.20
51811;DHT22;52468;40.116;18.296;2022-08-01T06:06:22;29.90;57.90
51811;DHT22;52468;40.116;18.296;2022-08-01T06:08:50;30.00;57.80
51811;DHT22;52468;40.116;18.296;2022-08-01T06:11:18;30.10;57.60
51811;DHT22;52468;40.116;18.296;2022-08-01T06:13:46;30.00;57.80
51811;DHT22;52468;40.116;18.296;2022-08-01T06:16:14;30.00;57.90
51811;DHT22;52468;40.116;18.296;2022-08-01T06:18:42;30.00;57.60
51811;DHT22;52468;40.116;18.296;2022-08-01T06:21:10;30.00;56.90
51811;DHT22;52468;40.116;18.296;2022-08-01T06:23:38;30.00;55.80
51811;DHT22;52468;40.116;18.296;2022-08-01T06:26:05;30.20;54.50
51811;DHT22;52468;40.116;18.296;2022-08-01T06:28:33;30.40;52.80
51811;DHT22;52468;40.116;18.296;2022-08-01T06:31:01;30.50;51.50
51811;DHT22;52468;40.116;18.296;2022-08-01T06:33:29;30.50;50.60
51811;DHT22;52468;40.116;18.296;2022-08-01T06:35:57;30.50;49.60
51811;DHT22;52468;40.116;18.296;2022-08-01T06:38:25;30.60;49.20
51811;DHT22;52468;40.116;18.296;2022-08-01T06:40:52;30.80;47.70
51811;DHT22;52468;40.116;18.296;2022-08-01T06:43:20;30.80;47.40
51811;DHT22;52468;40.116;18.296;2022-08-01T06:45:48;30.90;47.00
51811;DHT22;52468;40.116;18.296;2022-08-01T06:48:16;30.80;46.80
51811;DHT22;52468;40.116;18.296;2022-08-01T06:50:44;30.90;46.70
51811;DHT22;52468;40.116;18.296;2022-08-01T06:53:12;31.00;46.90
51811;DHT22;52468;40.116;18.296;2022-08-01T06:55:40;31.10;46.50
51811;DHT22;52468;40.116;18.296;2022-08-01T06:58:08;31.10;46.00
51811;DHT22;52468;40.116;18.296;2022-08-01T07:00:35;31.20;45.60
51811;DHT22;52468;40.116;18.296;2022-08-01T07:03:03;31.30;45.30
51811;DHT22;52468;40.116;18.296;2022-08-01T07:05:31;31.50;44.90
51811;DHT22;52468;40.116;18.296;2022-08-01T07:08:00;31.40;45.00
51811;DHT22;52468;40.116;18.296;2022-08-01T07:10:27;31.40;44.90
51811;DHT22;52468;40.116;18.296;2022-08-01T07:12:55;31.40;44.90
51811;DHT22;52468;40.116;18.296;2022-08-01T07:15:23;31.50;44.80
51811;DHT22;52468;40.116;18.296;2022-08-01T07:17:54;31.60;44.30
51811;DHT22;52468;40.116;18.296;2022-08-01T07:20:24;31.50;44.20
51811;DHT22;52468;40.116;18.296;2022-08-01T07:22:52;31.60;44.40
51811;DHT22;52468;40.116;18.296;2022-08-01T07:25:20;31.70;44.50
51811;DHT22;52468;40.116;18.296;2022-08-01T07:27:47;31.70;44.60
51811;DHT22;52468;40.116;18.296;2022-08-01T07:30:15;31.70;44.40
51811;DHT22;52468;40.116;18.296;2022-08-01T07:32:45;31.80;43.70
51811;DHT22;52468;40.116;18.296;2022-08-01T07:35:13;32.00;43.10
51811;DHT22;52468;40.116;18.296;2022-08-01T07:37:41;32.00;42.00
51811;DHT22;52468;40.116;18.296;2022-08-01T07:40:09;32.00;42.00
51811;DHT22;52468;40.116;18.296;2022-08-01T07:42:37;32.10;41.80
51811;DHT22;52468;40.116;18.296;2022-08-01T07:45:05;32.20;41.60
51811;DHT22;52468;40.116;18.296;2022-08-01T07:47:33;32.10;41.20
51811;DHT22;52468;40.116;18.296;2022-08-01T07:50:03;32.20;40.70
51811;DHT22;52468;40.116;18.296;2022-08-01T07:52:31;32.00;40.50
51811;DHT22;52468;40.116;18.296;2022-08-01T07:54:59;32.00;40.20
51811;DHT22;52468;40.116;18.296;2022-08-01T07:57:27;32.00;40.20
51811;DHT22;52468;40.116;18.296;2022-08-01T07:59:55;32.20;39.60
51811;DHT22;52468;40.116;18.296;2022-08-01T08:02:23;32.40;39.30
51811;DHT22;52468;40.116;18.296;2022-08-01T08:04:51;32.60;38.70
51811;DHT22;52468;40.116;18.296;2022-08-01T08:07:18;32.70;38.30
51811;DHT22;52468;40.116;18.296;2022-08-01T08:09:46;32.60;37.60
51811;DHT22;52468;40.116;18.296;2022-08-01T08:12:14;32.60;36.90
51811;DHT22;52468;40.116;18.296;2022-08-01T08:14:42;32.60;35.80
51811;DHT22;52468;40.116;18.296;2022-08-01T08:17:10;32.70;36.10
51811;DHT22;52468;40.116;18.296;2022-08-01T08:19:38;32.90;36.40
51811;DHT22;52468;40.116;18.296;2022-08-01T08:22:07;32.90;35.60
51811;DHT22;52468;40.116;18.296;2022-08-01T08:24:36;32.80;36.00
51811;DHT22;52468;40.116;18.296;2022-08-01T08:27:04;32.90;36.20
51811;DHT22;52468;40.116;18.296;2022-08-01T08:29:32;32.90;35.90
51811;DHT22;52468;40.116;18.296;2022-08-01T08:32:00;32.90;35.40
51811;DHT22;52468;40.116;18.296;2022-08-01T08:34:29;33.00;34.70
51811;DHT22;52468;40.116;18.296;2022-08-01T08:36:58;33.00;34.00
51811;DHT22;52468;40.116;18.296;2022-08-01T08:39:27;33.00;34.10
51811;DHT22;52468;40.116;18.296;2022-08-01T08:41:59;33.00;34.30
51811;DHT22;52468;40.116;18.296;2022-08-01T08:44:27;33.00;34.70
51811;DHT22;52468;40.116;18.296;2022-08-01T08:46:57;33.10;33.60
51811;DHT22;52468;40.116;18.296;2022-08-01T08:49:29;33.10;32.50
51811;DHT22;52468;40.116;18.296;2022-08-01T08:52:01;33.10;34.20
51811;DHT22;52468;40.116;18.296;2022-08-01T08:54:31;33.20;33.70
51811;DHT22;52468;40.116;18.296;2022-08-01T08:57:00;33.30;32.30
51811;DHT22;52468;40.116;18.296;2022-08-01T08:59:28;33.40;32.50
51811;DHT22;52468;40.116;18.296;2022-08-01T09:01:57;33.50;32.50
51811;DHT22;52468;40.116;18.296;2022-08-01T09:04:34;33.80;32.20
51811;DHT22;52468;40.116;18.296;2022-08-01T09:07:04;33.80;32.30
51811;DHT22;52468;40.116;18.296;2022-08-01T09:09:33;33.70;30.70
51811;DHT22;52468;40.116;18.296;2022-08-01T09:12:00;33.70;30.20
51811;DHT22;52468;40.116;18.296;2022-08-01T09:14:28;33.70;30.20
51811;DHT22;52468;40.116;18.296;2022-08-01T09:17:08;33.80;30.10
51811;DHT22;52468;40.116;18.296;2022-08-01T09:22:14;34.00;28.00
51811;DHT22;52468;40.116;18.296;2022-08-01T09:25:07;34.00;27.60
51811;DHT22;52468;40.116;18.296;2022-08-01T09:27:37;34.00;26.40
51811;DHT22;52468;40.116;18.296;2022-08-01T09:30:17;34.10;27.20
51811;DHT22;52468;40.116;18.296;2022-08-01T09:32:59;34.30;27.50
51811;DHT22;52468;40.116;18.296;2022-08-01T09:35:37;34.20;27.40
51811;DHT22;52468;40.116;18.296;2022-08-01T09:38:18;34.20;28.30
51811;DHT22;52468;40.116;18.296;2022-08-01T09:40:57;34.10;28.10
51811;DHT22;52468;40.116;18.296;2022-08-01T09:43:27;33.90;29.20
51811;DHT22;52468;40.116;18.296;2022-08-01T09:45:56;33.90;30.10
51811;DHT22;52468;40.116;18.296;2022-08-01T09:48:24;34.00;28.80
51811;DHT22;52468;40.116;18.296;2022-08-01T09:50:52;34.10;28.70
51811;DHT22;52468;40.116;18.296;2022-08-01T09:53:20;34.10;29.90
51811;DHT22;52468;40.116;18.296;2022-08-01T09:55:48;34.30;30.40
51811;DHT22;52468;40.116;18.296;2022-08-01T09:58:19;34.40;29.60
51811;DHT22;52468;40.116;18.296;2022-08-01T10:00:58;34.30;28.40
51811;DHT22;52468;40.116;18.296;2022-08-01T10:03:27;34.30;28.60
51811;DHT22;52468;40.116;18.296;2022-08-01T10:05:57;34.10;28.20
51811;DHT22;52468;40.116;18.296;2022-08-01T10:08:26;34.10;26.30
51811;DHT22;52468;40.116;18.296;2022-08-01T10:11:08;34.20;25.70
51811;DHT22;52468;40.116;18.296;2022-08-01T10:13:36;34.10;25.70
51811;DHT22;52468;40.116;18.296;2022-08-01T10:16:05;34.20;26.20
51811;DHT22;52468;40.116;18.296;2022-08-01T10:18:35;34.00;27.20
51811;DHT22;52468;40.116;18.296;2022-08-01T10:21:04;34.00;27.70
51811;DHT22;52468;40.116;18.296;2022-08-01T10:23:36;34.10;27.60
51811;DHT22;52468;40.116;18.296;2022-08-01T10:26:08;34.20;26.90
51811;DHT22;52468;40.116;18.296;2022-08-01T10:28:38;34.20;25.20
51811;DHT22;52468;40.116;18.296;2022-08-01T10:31:07;34.50;25.80
51811;DHT22;52468;40.116;18.296;2022-08-01T10:33:59;34.70;24.80
51811;DHT22;52468;40.116;18.296;2022-08-01T10:36:28;34.70;23.80
51811;DHT22;52468;40.116;18.296;2022-08-01T10:38:56;34.50;25.20
51811;DHT22;52468;40.116;18.296;2022-08-01T10:41:24;34.50;25.60
51811;DHT22;52468;40.116;18.296;2022-08-01T10:43:53;34.60;25.80
51811;DHT22;52468;40.116;18.296;2022-08-01T10:46:21;34.60;25.20
51811;DHT22;52468;40.116;18.296;2022-08-01T10:49:13;34.60;25.50
51811;DHT22;52468;40.116;18.296;2022-08-01T10:51:42;34.50;25.10
51811;DHT22;52468;40.116;18.296;2022-08-01T10:54:12;34.70;25.00
51811;DHT22;52468;40.116;18.296;2022-08-01T10:59:30;34.50;26.40
51811;DHT22;52468;40.116;18.296;2022-08-01T11:04:58;34.60;25.80
51811;DHT22;52468;40.116;18.296;2022-08-01T11:07:43;34.50;25.50
51811;DHT22;52468;40.116;18.296;2022-08-01T11:12:46;34.80;26.30
51811;DHT22;52468;40.116;18.296;2022-08-01T11:17:44;34.70;26.50
51811;DHT22;52468;40.116;18.296;2022-08-01T11:20:29;34.60;26.30
51811;DHT22;52468;40.116;18.296;2022-08-01T11:30:43;34.70;26.00
51811;DHT22;52468;40.116;18.296;2022-08-01T11:33:13;34.50;25.10
51811;DHT22;52468;40.116;18.296;2022-08-01T11:38:42;34.40;25.10
51811;DHT22;52468;40.116;18.296;2022-08-01T11:44:04;34.70;24.30
51811;DHT22;52468;40.116;18.296;2022-08-01T11:52:06;35.00;23.00
51811;DHT22;52468;40.116;18.296;2022-08-01T11:57:23;35.10;23.80
51811;DHT22;52468;40.116;18.296;2022-08-01T11:59:57;35.00;24.50
51811;DHT22;52468;40.116;18.296;2022-08-01T12:02:27;35.20;24.60
51811;DHT22;52468;40.116;18.296;2022-08-01T12:05:10;35.50;24.40
51811;DHT22;52468;40.116;18.296;2022-08-01T12:07:40;35.60;24.20
51811;DHT22;52468;40.116;18.296;2022-08-01T12:12:46;35.00;26.60
51811;DHT22;52468;40.116;18.296;2022-08-01T12:15:17;34.90;26.50
51811;DHT22;52468;40.116;18.296;2022-08-01T12:17:58;34.80;26.40
51811;DHT22;52468;40.116;18.296;2022-08-01T12:20:31;34.80;25.60
51811;DHT22;52468;40.116;18.296;2022-08-01T12:23:08;34.90;26.00
51811;DHT22;52468;40.116;18.296;2022-08-01T12:25:43;35.00;25.90
51811;DHT22;52468;40.116;18.296;2022-08-01T12:28:12;35.10;24.30
51811;DHT22;52468;40.116;18.296;2022-08-01T12:30:42;35.10;23.30
51811;DHT22;52468;40.116;18.296;2022-08-01T12:33:17;35.00;22.90
51811;DHT22;52468;40.116;18.296;2022-08-01T12:35:45;35.00;23.70
51811;DHT22;52468;40.116;18.296;2022-08-01T12:38:17;35.10;24.50
51811;DHT22;52468;40.116;18.296;2022-08-01T12:40:46;35.10;25.50
51811;DHT22;52468;40.116;18.296;2022-08-01T12:43:20;35.00;25.60
51811;DHT22;52468;40.116;18.296;2022-08-01T12:45:49;35.00;25.10
51811;DHT22;52468;40.116;18.296;2022-08-01T12:48:18;35.30;25.00
51811;DHT22;52468;40.116;18.296;2022-08-01T12:50:50;35.40;25.10
51811;DHT22;52468;40.116;18.296;2022-08-01T12:53:20;35.50;25.10
51811;DHT22;52468;40.116;18.296;2022-08-01T12:55:55;35.50;25.20
51811;DHT22;52468;40.116;18.296;2022-08-01T12:58:23;35.50;24.90
51811;DHT22;52468;40.116;18.296;2022-08-01T13:01:03;35.70;24.60
51811;DHT22;52468;40.116;18.296;2022-08-01T13:03:31;35.70;25.00
51811;DHT22;52468;40.116;18.296;2022-08-01T13:05:59;36.00;25.10
51811;DHT22;52468;40.116;18.296;2022-08-01T13:08:33;36.30;25.50
51811;DHT22;52468;40.116;18.296;2022-08-01T13:11:15;36.50;26.00
51811;DHT22;52468;40.116;18.296;2022-08-01T13:13:47;36.50;26.30
51811;DHT22;52468;40.116;18.296;2022-08-01T13:16:17;36.70;25.80
51811;DHT22;52468;40.116;18.296;2022-08-01T13:18:49;37.70;24.50
51811;DHT22;52468;40.116;18.296;2022-08-01T13:21:19;38.50;23.20
51811;DHT22;52468;40.116;18.296;2022-08-01T13:24:12;39.00;22.30
51811;DHT22;52468;40.116;18.296;2022-08-01T13:29:20;40.50;21.30
51811;DHT22;52468;40.116;18.296;2022-08-01T13:31:50;41.20;20.60
51811;DHT22;52468;40.116;18.296;2022-08-01T13:34:18;41.50;20.80
51811;DHT22;52468;40.116;18.296;2022-08-01T13:36:56;41.80;19.80
51811;DHT22;52468;40.116;18.296;2022-08-01T13:39:24;41.50;20.20
51811;DHT22;52468;40.116;18.296;2022-08-01T13:42:15;41.50;20.50
51811;DHT22;52468;40.116;18.296;2022-08-01T13:44:43;41.80;20.20
51811;DHT22;52468;40.116;18.296;2022-08-01T13:47:14;41.60;20.30
51811;DHT22;52468;40.116;18.296;2022-08-01T13:49:45;41.60;20.30
51811;DHT22;52468;40.116;18.296;2022-08-01T13:52:13;41.70;20.10
51811;DHT22;52468;40.116;18.296;2022-08-01T13:54:41;41.70;20.30
51811;DHT22;52468;40.116;18.296;2022-08-01T13:57:08;41.50;20.70
51811;DHT22;52468;40.116;18.296;2022-08-01T13:59:37;41.20;20.70
51811;DHT22;52468;40.116;18.296;2022-08-01T14:02:05;41.50;20.00
51811;DHT22;52468;40.116;18.296;2022-08-01T14:04:33;41.60;19.80
51811;DHT22;52468;40.116;18.296;2022-08-01T14:07:01;42.00;19.00
51811;DHT22;52468;40.116;18.296;2022-08-01T14:09:32;42.40;18.60
51811;DHT22;52468;40.116;18.296;2022-08-01T14:12:00;43.00;18.10
51811;DHT22;52468;40.116;18.296;2022-08-01T14:14:28;43.00;16.70
51811;DHT22;52468;40.116;18.296;2022-08-01T14:16:56;42.10;17.30
51811;DHT22;52468;40.116;18.296;2022-08-01T14:19:24;42.50;17.20
51811;DHT22;52468;40.116;18.296;2022-08-01T14:21:52;42.50;16.80
51811;DHT22;52468;40.116;18.296;2022-08-01T14:24:20;42.90;17.00
51811;DHT22;52468;40.116;18.296;2022-08-01T14:26:48;42.50;17.70
51811;DHT22;52468;40.116;18.296;2022-08-01T14:29:15;42.90;16.60
51811;DHT22;52468;40.116;18.296;2022-08-01T14:31:43;43.20;16.70
51811;DHT22;52468;40.116;18.296;2022-08-01T14:34:11;42.90;16.40
51811;DHT22;52468;40.116;18.296;2022-08-01T14:36:40;42.10;16.70
51811;DHT22;52468;40.116;18.296;2022-08-01T14:39:08;42.00;16.50
51811;DHT22;52468;40.116;18.296;2022-08-01T14:41:36;42.10;16.40
51811;DHT22;52468;40.116;18.296;2022-08-01T14:44:04;42.10;16.10
51811;DHT22;52468;40.116;18.296;2022-08-01T14:46:32;41.90;15.80
51811;DHT22;52468;40.116;18.296;2022-08-01T14:49:00;41.90;15.90
51811;DHT22;52468;40.116;18.296;2022-08-01T14:51:27;41.60;16.40
51811;DHT22;52468;40.116;18.296;2022-08-01T14:54:00;41.70;16.60
51811;DHT22;52468;40.116;18.296;2022-08-01T14:56:28;42.00;16.60
51811;DHT22;52468;40.116;18.296;2022-08-01T14:58:55;41.60;16.50
51811;DHT22;52468;40.116;18.296;2022-08-01T15:01:23;41.80;16.80
51811;DHT22;52468;40.116;18.296;2022-08-01T15:03:51;41.60;16.90
51811;DHT22;52468;40.116;18.296;2022-08-01T15:06:19;41.60;18.50
51811;DHT22;52468;40.116;18.296;2022-08-01T15:08:47;42.00;18.30
51811;DHT22;52468;40.116;18.296;2022-08-01T15:11:15;42.30;18.30
51811;DHT22;52468;40.116;18.296;2022-08-01T15:13:43;42.20;18.70
51811;DHT22;52468;40.116;18.296;2022-08-01T15:16:11;41.50;18.70
51811;DHT22;52468;40.116;18.296;2022-08-01T15:18:39;41.40;18.80
51811;DHT22;52468;40.116;18.296;2022-08-01T15:21:09;41.10;18.90
51811;DHT22;52468;40.116;18.296;2022-08-01T15:23:38;41.00;19.10
51811;DHT22;52468;40.116;18.296;2022-08-01T15:26:05;41.00;18.70
51811;DHT22;52468;40.116;18.296;2022-08-01T15:28:41;41.10;18.70
51811;DHT22;52468;40.116;18.296;2022-08-01T15:31:08;40.90;18.90
51811;DHT22;52468;40.116;18.296;2022-08-01T15:33:38;40.80;18.70
51811;DHT22;52468;40.116;18.296;2022-08-01T15:36:07;41.20;18.60
51811;DHT22;52468;40.116;18.296;2022-08-01T15:38:34;41.10;18.70
51811;DHT22;52468;40.116;18.296;2022-08-01T15:41:02;40.60;19.50
51811;DHT22;52468;40.116;18.296;2022-08-01T15:43:30;41.00;18.80
51811;DHT22;52468;40.116;18.296;2022-08-01T15:45:58;41.60;18.20
51811;DHT22;52468;40.116;18.296;2022-08-01T15:48:26;41.40;19.00
51811;DHT22;52468;40.116;18.296;2022-08-01T15:50:53;41.70;18.90
51811;DHT22;52468;40.116;18.296;2022-08-01T15:53:21;41.30;18.50
51811;DHT22;52468;40.116;18.296;2022-08-01T15:55:49;40.90;19.50
51811;DHT22;52468;40.116;18.296;2022-08-01T15:58:17;40.90;20.10
51811;DHT22;52468;40.116;18.296;2022-08-01T16:00:45;40.10;21.60
51811;DHT22;52468;40.116;18.296;2022-08-01T16:03:12;39.80;22.10
51811;DHT22;52468;40.116;18.296;2022-08-01T16:05:40;40.20;21.30
51811;DHT22;52468;40.116;18.296;2022-08-01T16:08:12;39.80;22.50
51811;DHT22;52468;40.116;18.296;2022-08-01T16:10:40;39.50;22.40
51811;DHT22;52468;40.116;18.296;2022-08-01T16:13:28;39.50;22.50
51811;DHT22;52468;40.116;18.296;2022-08-01T16:15:56;39.60;22.80
51811;DHT22;52468;40.116;18.296;2022-08-01T16:18:49;39.30;22.90
51811;DHT22;52468;40.116;18.296;2022-08-01T16:21:17;39.40;23.00
51811;DHT22;52468;40.116;18.296;2022-08-01T16:23:45;39.10;23.40
51811;DHT22;52468;40.116;18.296;2022-08-01T16:26:13;39.10;23.50